Time;durP1;ratioP1;P1;durP2;ratioP2;P2;SDS_P1;SDS_P2;PMS_P1;PMS_P2;Temp;Humidity;BMP_temperature;BMP_pressure;BME280_temperature;BME280_humidity;BME280_pressure;Samples;Min_cycle;Max_cycle;Signal;HPM_P1;HPM_P2
2021/08/03 00:00:14;;;;;;;6.73;6.20;;;16.70;99.60;;;;;;5106397;28;20478;-72
2021/08/03 00:02:45;;;;;;;6.43;5.87;;;16.70;99.70;;;;;;5096033;28;20419;-72
2021/08/03 00:05:19;;;;;;;6.47;5.87;;;16.60;99.50;;;;;;5092167;28;20449;-73
2021/08/03 00:07:47;;;;;;;6.27;5.90;;;16.60;99.50;;;;;;5092637;28;20467;-72
2021/08/03 00:10:17;;;;;;;6.67;6.10;;;16.60;99.70;;;;;;5092363;28;20501;-71
2021/08/03 00:12:49;;;;;;;6.70;6.30;;;16.60;99.80;;;;;;5092289;28;20497;-72
2021/08/03 00:15:19;;;;;;;6.90;6.30;;;16.60;99.60;;;;;;5092361;28;20446;-72
2021/08/03 00:17:45;;;;;;;5.87;5.47;;;16.50;99.60;;;;;;5091724;28;20407;-72
2021/08/03 00:20:11;;;;;;;6.13;5.53;;;16.50;99.50;;;;;;5092362;28;20762;-72
2021/08/03 00:22:37;;;;;;;6.60;6.13;;;16.50;99.40;;;;;;5099191;28;20420;-72
2021/08/03 00:25:03;;;;;;;7.07;6.60;;;16.50;99.50;;;;;;5111470;28;20218;-72
2021/08/03 00:27:29;;;;;;;6.87;6.47;;;16.50;99.40;;;;;;5111423;28;20844;-72
2021/08/03 00:29:56;;;;;;;7.33;6.83;;;16.50;99.40;;;;;;5113129;28;20484;-72
2021/08/03 00:32:25;;;;;;;6.50;6.00;;;16.50;99.30;;;;;;5102576;28;20589;-72
2021/08/03 00:34:51;;;;;;;7.00;6.50;;;16.50;99.40;;;;;;5102415;28;20441;-72
2021/08/03 00:37:16;;;;;;;6.90;6.40;;;16.50;99.70;;;;;;5099378;28;20467;-72
2021/08/03 00:39:42;;;;;;;5.90;5.50;;;16.40;99.50;;;;;;5098989;28;20176;-72
2021/08/03 00:42:09;;;;;;;6.93;6.23;;;16.50;99.40;;;;;;5099838;28;20184;-72
2021/08/03 00:44:45;;;;;;;6.57;6.17;;;16.40;99.40;;;;;;5091059;28;20255;-72
2021/08/03 00:47:13;;;;;;;6.70;6.10;;;16.40;99.40;;;;;;5092063;28;20453;-73
2021/08/03 00:49:40;;;;;;;6.83;6.30;;;16.40;99.60;;;;;;5095922;28;20465;-74
2021/08/03 00:52:08;;;;;;;7.00;6.57;;;16.40;99.70;;;;;;5100096;28;20487;-72
2021/08/03 00:54:34;;;;;;;6.50;6.10;;;16.40;99.50;;;;;;5101385;28;20474;-72
2021/08/03 00:57:00;;;;;;;6.50;6.00;;;16.40;99.50;;;;;;5102241;28;20495;-72
2021/08/03 00:59:26;;;;;;;7.03;6.30;;;16.40;99.80;;;;;;5102839;28;20478;-72
2021/08/03 01:01:53;;;;;;;6.13;5.63;;;16.40;99.90;;;;;;5101045;28;20414;-72
2021/08/03 01:04:18;;;;;;;7.37;6.77;;;16.30;99.90;;;;;;5099386;28;20459;-73
2021/08/03 01:06:52;;;;;;;7.20;6.70;;;16.30;99.90;;;;;;5101910;28;20404;-74
2021/08/03 01:09:45;;;;;;;6.80;6.20;;;16.30;99.90;;;;;;5099231;28;20167;-72
2021/08/03 01:12:40;;;;;;;7.30;6.70;;;16.30;99.90;;;;;;5096510;28;20422;-72
2021/08/03 01:15:11;;;;;;;7.10;6.60;;;16.30;99.90;;;;;;5099919;28;20820;-72
2021/08/03 01:17:47;;;;;;;6.67;6.00;;;16.20;99.90;;;;;;5102182;28;20772;-72
2021/08/03 01:20:23;;;;;;;6.90;6.33;;;16.20;99.60;;;;;;5101957;28;20411;-72
2021/08/03 01:23:17;;;;;;;7.43;6.73;;;16.20;99.60;;;;;;5099530;28;20414;-72
2021/08/03 01:26:04;;;;;;;7.20;6.60;;;16.20;99.60;;;;;;5092010;28;20426;-72
2021/08/03 01:28:38;;;;;;;7.70;7.13;;;16.20;99.60;;;;;;5091689;28;20413;-72
2021/08/03 01:31:15;;;;;;;6.47;6.00;;;16.20;99.30;;;;;;5092593;28;20425;-72
2021/08/03 01:33:46;;;;;;;6.63;6.07;;;16.20;99.30;;;;;;5092270;28;20444;-72
2021/08/03 01:36:15;;;;;;;7.50;6.90;;;16.10;99.20;;;;;;5091719;28;20403;-73
2021/08/03 01:38:43;;;;;;;7.77;7.07;;;16.10;99.30;;;;;;5095278;28;20436;-72
2021/08/03 01:41:14;;;;;;;7.73;7.23;;;16.10;99.50;;;;;;5095599;28;20516;-73
2021/08/03 01:43:41;;;;;;;7.80;7.20;;;16.10;99.60;;;;;;5096013;28;20420;-73
2021/08/03 01:46:08;;;;;;;6.20;5.80;;;16.00;99.70;;;;;;5095436;28;20953;-73
2021/08/03 01:48:36;;;;;;;6.80;6.30;;;16.10;99.70;;;;;;5095223;28;20418;-72
2021/08/03 01:51:02;;;;;;;6.67;6.17;;;16.00;99.40;;;;;;5095353;28;20413;-72
2021/08/03 01:53:28;;;;;;;6.70;6.20;;;15.90;99.70;;;;;;5094412;28;20469;-72
2021/08/03 01:55:57;;;;;;;7.03;6.30;;;15.90;99.80;;;;;;5095742;28;20889;-73
2021/08/03 01:58:24;;;;;;;7.33;6.73;;;15.90;99.90;;;;;;5094930;28;20413;-72
2021/08/03 02:00:52;;;;;;;6.70;6.10;;;15.80;99.90;;;;;;5095214;28;20753;-72
2021/08/03 02:03:21;;;;;;;7.03;6.53;;;15.80;99.90;;;;;;5094796;28;20468;-72
2021/08/03 02:05:49;;;;;;;6.63;6.20;;;15.80;99.90;;;;;;5095366;28;20412;-72
2021/08/03 02:08:18;;;;;;;7.90;7.20;;;15.90;99.90;;;;;;5094430;28;20400;-72
2021/08/03 02:10:45;;;;;;;6.77;6.27;;;15.90;99.90;;;;;;5095272;28;20451;-72
2021/08/03 02:13:11;;;;;;;7.20;6.70;;;15.80;99.90;;;;;;5093887;28;20432;-72
2021/08/03 02:15:37;;;;;;;8.23;7.60;;;15.80;99.90;;;;;;5094605;28;20437;-73
2021/08/03 02:18:03;;;;;;;7.70;7.10;;;15.80;99.90;;;;;;5095148;28;20450;-72
2021/08/03 02:20:29;;;;;;;9.03;7.53;;;15.80;99.90;;;;;;5094613;28;20869;-72
2021/08/03 02:22:55;;;;;;;7.83;7.23;;;15.80;99.90;;;;;;5095073;28;20177;-72
2021/08/03 02:25:21;;;;;;;7.50;6.90;;;15.80;99.90;;;;;;5093253;28;20410;-72
2021/08/03 02:27:46;;;;;;;7.73;7.17;;;15.80;99.90;;;;;;5094966;28;20183;-72
2021/08/03 02:30:12;;;;;;;7.33;6.90;;;15.90;99.90;;;;;;5094530;28;20412;-80
2021/08/03 02:32:49;;;;;;;7.17;6.67;;;15.80;99.90;;;;;;5096602;28;20176;-72
2021/08/03 02:35:21;;;;;;;7.63;7.13;;;15.80;99.90;;;;;;5094414;28;20445;-73
2021/08/03 02:37:58;;;;;;;7.50;7.00;;;15.80;99.80;;;;;;5094551;28;20894;-72
2021/08/03 02:40:24;;;;;;;7.63;7.00;;;15.70;99.60;;;;;;5094180;28;20395;-72
2021/08/03 02:42:52;;;;;;;8.13;7.53;;;15.80;99.90;;;;;;5094314;28;20421;-72
2021/08/03 02:45:19;;;;;;;7.43;6.83;;;15.70;99.90;;;;;;5093968;28;20448;-72
2021/08/03 02:47:56;;;;;;;8.10;7.50;;;15.70;99.90;;;;;;5093348;28;20420;-72
2021/08/03 02:50:24;;;;;;;7.40;6.73;;;15.70;99.90;;;;;;5093123;28;20402;-72
2021/08/03 02:52:53;;;;;;;8.17;7.57;;;15.60;99.90;;;;;;5094548;28;20413;-72
2021/08/03 02:55:21;;;;;;;9.10;8.40;;;15.60;99.90;;;;;;5093728;28;20593;-72
2021/08/03 02:57:56;;;;;;;8.27;7.67;;;15.60;99.90;;;;;;5094325;28;20429;-72
2021/08/03 03:00:22;;;;;;;8.13;7.43;;;15.60;99.90;;;;;;5093421;28;20408;-72
2021/08/03 03:02:48;;;;;;;8.13;7.53;;;15.70;99.90;;;;;;5094548;28;20405;-72
2021/08/03 03:05:26;;;;;;;8.13;7.53;;;15.70;99.90;;;;;;5094046;28;20415;-80
2021/08/03 03:08:23;;;;;;;8.30;7.63;;;15.80;99.90;;;;;;5094419;28;20853;-72
2021/08/03 03:10:51;;;;;;;8.20;7.50;;;15.80;99.90;;;;;;5085412;28;20421;-72
2021/08/03 03:13:30;;;;;;;9.83;9.03;;;15.70;99.90;;;;;;5092515;28;20510;-73
2021/08/03 03:15:59;;;;;;;11.10;9.97;;;15.70;99.90;;;;;;5094045;28;20561;-72
2021/08/03 03:18:25;;;;;;;10.77;9.97;;;15.60;99.90;;;;;;5093513;28;20421;-72
2021/08/03 03:20:52;;;;;;;10.57;9.50;;;15.60;99.90;;;;;;5092751;28;20421;-72
2021/08/03 03:23:22;;;;;;;9.73;9.00;;;15.60;99.90;;;;;;5092950;28;20550;-73
2021/08/03 03:25:50;;;;;;;9.50;8.80;;;15.60;99.90;;;;;;5093823;28;20949;-72
2021/08/03 03:28:22;;;;;;;11.27;10.27;;;15.70;99.90;;;;;;5093372;28;20488;-78
2021/08/03 03:30:49;;;;;;;11.43;10.43;;;15.70;99.90;;;;;;5092497;28;20420;-72
2021/08/03 03:33:15;;;;;;;10.50;9.70;;;15.70;99.90;;;;;;5093885;28;20414;-72
2021/08/03 03:35:42;;;;;;;10.87;9.87;;;15.80;99.90;;;;;;5093345;28;20420;-73
2021/08/03 03:38:08;;;;;;;11.93;10.93;;;15.80;99.90;;;;;;5093062;28;20413;-73
2021/08/03 03:40:35;;;;;;;12.63;11.73;;;15.80;99.90;;;;;;5092643;28;20916;-72
2021/08/03 03:43:02;;;;;;;12.63;11.63;;;15.80;99.90;;;;;;5092848;28;20227;-72
2021/08/03 03:45:29;;;;;;;15.10;13.90;;;15.80;99.90;;;;;;5092888;28;20469;-72
2021/08/03 03:48:06;;;;;;;17.83;16.43;;;15.80;99.90;;;;;;5093536;28;20505;-73
2021/08/03 03:50:36;;;;;;;24.97;22.90;;;15.90;99.90;;;;;;5092582;28;20406;-72
2021/08/03 03:53:11;;;;;;;30.73;27.77;;;15.90;99.90;;;;;;5093348;28;20414;-72
2021/08/03 03:55:37;;;;;;;29.80;27.10;;;15.80;99.90;;;;;;5092579;28;20428;-72
2021/08/03 03:58:04;;;;;;;29.60;27.03;;;15.80;99.90;;;;;;5092964;28;20505;-72
2021/08/03 04:00:35;;;;;;;29.63;27.00;;;15.70;99.90;;;;;;5092210;28;20396;-73
2021/08/03 04:03:03;;;;;;;26.43;24.00;;;15.60;99.90;;;;;;5093274;28;20394;-72
2021/08/03 04:05:30;;;;;;;30.43;27.73;;;15.60;99.90;;;;;;5092520;28;20486;-72
2021/08/03 04:07:55;;;;;;;28.90;26.10;;;15.50;99.90;;;;;;5093076;28;20772;-72
2021/08/03 04:10:34;;;;;;;29.07;26.40;;;15.50;99.90;;;;;;5092365;28;20420;-72
2021/08/03 04:13:01;;;;;;;27.90;25.40;;;15.50;99.90;;;;;;5093091;28;20549;-72
2021/08/03 04:15:27;;;;;;;30.30;27.43;;;15.40;99.90;;;;;;5092616;28;20487;-73
2021/08/03 04:17:53;;;;;;;25.20;22.80;;;15.50;99.90;;;;;;5092759;28;20431;-72
2021/08/03 04:20:19;;;;;;;20.87;19.10;;;15.40;99.90;;;;;;5092643;28;20503;-78
2021/08/03 04:22:44;;;;;;;17.07;15.63;;;15.50;99.90;;;;;;5093037;28;20170;-72
2021/08/03 04:25:10;;;;;;;15.80;14.40;;;15.60;99.90;;;;;;5092852;28;20477;-72
2021/08/03 04:27:36;;;;;;;14.53;12.40;;;15.60;99.90;;;;;;5091882;28;20692;-72
2021/08/03 04:30:04;;;;;;;14.10;12.80;;;15.70;99.90;;;;;;5092797;28;20519;-72
2021/08/03 04:32:29;;;;;;;15.43;14.13;;;15.80;99.90;;;;;;5092262;28;20167;-72
2021/08/03 04:34:55;;;;;;;18.40;16.80;;;15.90;99.90;;;;;;5092597;28;20543;-72
2021/08/03 04:37:21;;;;;;;16.50;14.83;;;15.90;99.90;;;;;;5091697;28;20619;-73
2021/08/03 04:39:46;;;;;;;14.57;13.33;;;16.00;99.90;;;;;;5092756;28;20176;-72
2021/08/03 04:42:12;;;;;;;17.03;15.70;;;16.00;99.90;;;;;;5092549;28;20627;-72
2021/08/03 04:44:38;;;;;;;21.67;19.97;;;16.00;99.90;;;;;;5091957;28;20219;-72
2021/08/03 04:47:04;;;;;;;25.30;23.00;;;16.10;99.90;;;;;;5092058;28;20221;-72
2021/08/03 04:49:31;;;;;;;26.37;23.40;;;16.20;99.90;;;;;;5091684;28;20179;-72
2021/08/03 04:51:57;;;;;;;24.10;21.90;;;16.20;99.90;;;;;;5090974;28;20322;-72
2021/08/03 04:54:22;;;;;;;16.13;14.93;;;16.20;99.90;;;;;;5092144;28;20540;-73
2021/08/03 04:56:48;;;;;;;12.93;11.93;;;16.20;99.90;;;;;;5092040;28;20187;-72
2021/08/03 04:59:14;;;;;;;10.20;9.30;;;16.20;99.90;;;;;;5090819;28;20262;-73
2021/08/03 05:01:39;;;;;;;8.80;7.97;;;16.00;99.90;;;;;;5091772;28;20175;-72
2021/08/03 05:04:05;;;;;;;9.83;8.93;;;15.90;99.90;;;;;;5092525;28;20183;-72
2021/08/03 05:06:31;;;;;;;12.73;11.73;;;15.90;99.90;;;;;;5091769;28;20213;-72
2021/08/03 05:08:56;;;;;;;10.87;9.87;;;15.90;99.90;;;;;;5092416;28;20266;-72
2021/08/03 05:11:22;;;;;;;11.37;10.27;;;15.90;99.90;;;;;;5091435;28;20646;-75
2021/08/03 05:13:48;;;;;;;9.53;8.53;;;16.10;99.90;;;;;;5095857;28;20203;-72
2021/08/03 05:16:13;;;;;;;11.03;9.23;;;16.00;99.90;;;;;;5096372;28;20620;-72
2021/08/03 05:18:39;;;;;;;11.20;9.23;;;16.10;99.90;;;;;;5095684;28;20179;-72
2021/08/03 05:21:05;;;;;;;9.10;8.30;;;16.10;99.90;;;;;;5094991;28;20182;-72
2021/08/03 05:23:30;;;;;;;11.17;10.20;;;16.20;99.90;;;;;;5094357;28;20175;-72
2021/08/03 05:25:56;;;;;;;12.27;11.23;;;16.20;99.90;;;;;;5095973;28;20660;-72
2021/08/03 05:28:22;;;;;;;10.40;9.37;;;16.20;99.90;;;;;;5096160;28;20251;-72
2021/08/03 05:30:49;;;;;;;11.20;10.20;;;16.10;99.90;;;;;;5096012;28;20184;-72
2021/08/03 05:33:15;;;;;;;10.93;9.93;;;16.10;99.90;;;;;;5095978;28;20401;-72
2021/08/03 05:35:42;;;;;;;9.47;8.73;;;16.10;99.90;;;;;;5095107;28;20406;-73
2021/08/03 05:38:08;;;;;;;11.20;10.20;;;16.10;99.90;;;;;;5095767;28;20169;-72
2021/08/03 05:40:34;;;;;;;10.10;9.10;;;16.00;99.90;;;;;;5095275;28;20848;-72
2021/08/03 05:43:00;;;;;;;10.77;9.83;;;16.00;99.90;;;;;;5095218;28;20455;-72
2021/08/03 05:45:27;;;;;;;11.30;10.30;;;15.90;99.90;;;;;;5093891;28;20461;-72
2021/08/03 05:47:53;;;;;;;11.60;10.70;;;15.90;99.90;;;;;;5095165;28;20175;-72
2021/08/03 05:50:19;;;;;;;12.83;11.70;;;15.70;99.90;;;;;;5095726;28;20409;-72
2021/08/03 05:52:44;;;;;;;11.20;9.97;;;15.70;99.90;;;;;;5095254;28;20761;-72
2021/08/03 05:55:10;;;;;;;11.10;10.03;;;15.70;99.90;;;;;;5095625;28;20208;-72
2021/08/03 05:57:36;;;;;;;12.00;11.07;;;15.80;99.90;;;;;;5094816;28;20210;-73
2021/08/03 06:00:03;;;;;;;11.97;10.97;;;15.90;99.90;;;;;;5095489;28;20414;-73
2021/08/03 06:02:29;;;;;;;11.77;10.77;;;16.00;99.90;;;;;;5094946;28;20182;-72
2021/08/03 06:04:55;;;;;;;12.37;11.27;;;16.10;99.90;;;;;;5095473;28;20409;-72
2021/08/03 06:07:25;;;;;;;11.57;10.47;;;16.10;99.90;;;;;;5095128;28;20190;-73
2021/08/03 06:09:56;;;;;;;12.73;11.73;;;16.20;99.90;;;;;;5096019;28;20179;-72
2021/08/03 06:12:25;;;;;;;12.73;11.70;;;16.30;99.90;;;;;;5095271;28;20513;-72
2021/08/03 06:14:54;;;;;;;11.43;10.53;;;16.20;99.90;;;;;;5095473;28;20536;-72
2021/08/03 06:17:32;;;;;;;10.63;9.73;;;16.20;99.90;;;;;;5093116;28;20932;-72
2021/08/03 06:19:59;;;;;;;10.87;9.80;;;16.20;99.90;;;;;;5091854;28;20417;-72
2021/08/03 06:22:26;;;;;;;9.90;8.97;;;16.20;99.90;;;;;;5094515;28;20414;-71
2021/08/03 06:24:53;;;;;;;10.40;9.60;;;16.10;99.90;;;;;;5092739;28;20410;-72
2021/08/03 06:27:20;;;;;;;9.77;8.97;;;16.10;99.90;;;;;;5094503;28;20398;-72
2021/08/03 06:29:48;;;;;;;10.67;9.83;;;16.20;99.90;;;;;;5092300;28;20414;-72
2021/08/03 06:32:15;;;;;;;14.50;13.30;;;16.30;99.90;;;;;;5093249;28;20437;-72
2021/08/03 06:34:44;;;;;;;16.50;15.00;;;16.30;99.90;;;;;;5093184;28;20509;-72
2021/08/03 06:37:11;;;;;;;13.57;12.27;;;16.40;99.90;;;;;;5094455;28;20487;-72
2021/08/03 06:39:37;;;;;;;13.00;11.87;;;16.50;99.90;;;;;;5093338;28;20414;-72
2021/08/03 06:42:15;;;;;;;14.80;13.17;;;16.60;99.90;;;;;;5093967;28;20439;-73
2021/08/03 06:44:47;;;;;;;14.77;13.50;;;16.60;99.90;;;;;;5093214;28;20476;-73
2021/08/03 06:47:15;;;;;;;17.37;15.60;;;16.90;99.90;;;;;;5094427;28;20407;-73
2021/08/03 06:49:43;;;;;;;19.10;17.27;;;17.20;99.90;;;;;;5093120;28;20414;-73
2021/08/03 06:52:13;;;;;;;23.60;21.30;;;17.60;99.90;;;;;;5094061;28;20454;-78
2021/08/03 06:54:47;;;;;;;22.13;20.10;;;17.90;99.90;;;;;;5091869;28;20545;-73
2021/08/03 06:57:16;;;;;;;27.57;24.60;;;18.10;99.90;;;;;;5094107;28;20394;-73
2021/08/03 06:59:52;;;;;;;27.10;24.57;;;18.40;99.90;;;;;;5092741;28;20849;-74
2021/08/03 07:02:44;;;;;;;25.53;23.07;;;18.60;99.90;;;;;;5094149;28;20477;-72
2021/08/03 07:05:17;;;;;;;26.53;23.37;;;18.90;99.90;;;;;;5092962;28;20755;-73
2021/08/03 07:07:45;;;;;;;24.93;22.57;;;19.10;99.90;;;;;;5093270;28;20449;-73
2021/08/03 07:10:13;;;;;;;21.67;19.53;;;19.20;99.50;;;;;;5092673;28;20406;-73
2021/08/03 07:12:44;;;;;;;17.97;16.17;;;19.40;99.10;;;;;;5093375;28;20407;-73
2021/08/03 07:15:11;;;;;;;17.50;15.83;;;19.50;98.60;;;;;;5093947;28;20461;-73
2021/08/03 07:17:39;;;;;;;16.27;14.67;;;19.60;98.30;;;;;;5093456;28;20441;-73
2021/08/03 07:20:05;;;;;;;15.67;14.20;;;19.70;98.30;;;;;;5094179;28;20411;-72
2021/08/03 07:22:34;;;;;;;14.83;13.57;;;19.80;99.80;;;;;;5093306;28;20414;-73
2021/08/03 07:25:02;;;;;;;13.80;12.60;;;19.90;99.20;;;;;;5092366;28;20460;-72
2021/08/03 07:27:28;;;;;;;13.13;12.00;;;20.00;98.50;;;;;;5102896;28;20406;-71
2021/08/03 07:29:53;;;;;;;14.33;12.70;;;19.90;97.40;;;;;;5113950;28;20881;-71
2021/08/03 07:32:19;;;;;;;13.40;11.83;;;19.70;97.10;;;;;;5103238;28;20187;-71
2021/08/03 07:34:45;;;;;;;13.30;11.80;;;19.50;97.20;;;;;;5113066;28;20296;-72
2021/08/03 07:37:11;;;;;;;11.20;10.20;;;19.20;97.30;;;;;;5095975;28;20422;-72
2021/08/03 07:39:38;;;;;;;10.40;9.40;;;19.00;97.30;;;;;;5101184;28;20171;-72
2021/08/03 07:42:05;;;;;;;9.90;9.03;;;18.80;97.70;;;;;;5113923;28;20250;-71
2021/08/03 07:44:31;;;;;;;10.37;9.37;;;18.60;98.30;;;;;;5146040;27;20464;-75
2021/08/03 07:46:57;;;;;;;10.37;9.47;;;18.50;98.50;;;;;;5113942;28;20413;-72
2021/08/03 07:49:23;;;;;;;10.70;9.90;;;18.40;99.00;;;;;;5093739;28;20786;-71
2021/08/03 07:51:50;;;;;;;10.60;9.77;;;18.20;99.40;;;;;;5092417;28;20180;-71
2021/08/03 07:54:16;;;;;;;10.17;9.37;;;18.10;99.90;;;;;;5093463;28;20446;-72
2021/08/03 07:56:42;;;;;;;10.10;9.27;;;18.00;99.90;;;;;;5092126;28;20422;-71
2021/08/03 07:59:08;;;;;;;9.70;8.90;;;17.90;99.90;;;;;;5092589;28;20658;-71
2021/08/03 08:01:34;;;;;;;12.10;10.20;;;17.90;99.90;;;;;;5092341;28;20422;-71
2021/08/03 08:03:59;;;;;;;13.07;11.97;;;17.80;99.90;;;;;;5093324;28;20195;-71
2021/08/03 08:06:25;;;;;;;12.23;11.13;;;17.70;99.90;;;;;;5093045;28;20180;-72
2021/08/03 08:08:51;;;;;;;10.00;9.30;;;17.60;99.90;;;;;;5092462;28;20491;-72
2021/08/03 08:11:17;;;;;;;12.13;11.03;;;17.50;99.90;;;;;;5092555;28;20486;-72
2021/08/03 08:13:43;;;;;;;11.90;10.90;;;17.50;99.90;;;;;;5091997;28;20726;-72
2021/08/03 08:16:09;;;;;;;15.07;13.80;;;17.50;99.90;;;;;;5092646;28;20195;-72
2021/08/03 08:18:36;;;;;;;16.27;14.73;;;17.40;99.90;;;;;;5091940;28;20423;-72
2021/08/03 08:21:02;;;;;;;16.97;15.20;;;17.40;99.90;;;;;;5091825;28;20181;-72
2021/08/03 08:23:28;;;;;;;19.43;17.50;;;17.50;99.90;;;;;;5091648;28;20403;-72
2021/08/03 08:25:54;;;;;;;20.10;16.80;;;17.40;99.90;;;;;;5092083;28;20405;-72
2021/08/03 08:28:20;;;;;;;20.53;18.33;;;17.40;99.90;;;;;;5092311;28;20182;-72
2021/08/03 08:30:45;;;;;;;19.47;17.50;;;17.50;99.90;;;;;;5092170;28;20468;-72
2021/08/03 08:33:11;;;;;;;18.43;16.73;;;17.50;99.90;;;;;;5092798;28;20218;-72
2021/08/03 08:35:38;;;;;;;16.77;15.20;;;17.60;99.90;;;;;;5092033;28;20261;-72
2021/08/03 08:38:05;;;;;;;16.50;14.80;;;17.60;99.90;;;;;;5092646;28;20176;-72
2021/08/03 08:40:31;;;;;;;20.90;16.00;;;17.60;99.90;;;;;;5092629;28;20394;-72
2021/08/03 08:42:57;;;;;;;30.30;27.30;;;17.70;99.90;;;;;;5091614;28;20414;-72
2021/08/03 08:45:23;;;;;;;29.03;26.00;;;17.70;99.90;;;;;;5092633;28;20442;-72
2021/08/03 08:47:49;;;;;;;20.20;18.30;;;17.80;99.90;;;;;;5095690;28;20180;-72
2021/08/03 08:50:21;;;;;;;14.67;13.27;;;17.80;99.90;;;;;;5100574;28;20240;-72
2021/08/03 08:52:50;;;;;;;11.33;10.27;;;17.90;99.90;;;;;;5092173;28;20814;-73
2021/08/03 08:55:17;;;;;;;12.47;10.70;;;17.90;99.90;;;;;;5095994;28;20490;-72
2021/08/03 08:57:42;;;;;;;10.93;9.83;;;17.90;99.90;;;;;;5094941;27;20414;-73
2021/08/03 09:00:10;;;;;;;9.60;8.60;;;17.90;99.90;;;;;;5095180;28;20410;-72
2021/08/03 09:02:47;;;;;;;9.97;9.20;;;18.00;99.90;;;;;;5094695;28;20757;-78
2021/08/03 09:05:16;;;;;;;11.57;10.60;;;17.90;99.90;;;;;;5093131;28;20753;-72
2021/08/03 09:07:49;;;;;;;10.20;9.37;;;18.10;99.90;;;;;;5094479;28;20451;-72
2021/08/03 09:10:30;;;;;;;10.03;9.23;;;18.20;99.90;;;;;;5093052;28;20425;-74
2021/08/03 09:13:18;;;;;;;9.67;8.97;;;18.30;99.90;;;;;;5091864;28;20419;-72
2021/08/03 09:15:59;;;;;;;10.77;9.87;;;18.40;99.90;;;;;;5093462;28;20407;-72
2021/08/03 09:18:28;;;;;;;12.50;10.30;;;18.60;99.90;;;;;;5093760;28;20449;-72
2021/08/03 09:20:55;;;;;;;10.50;9.60;;;18.70;99.90;;;;;;5091792;28;20464;-72
2021/08/03 09:23:40;;;;;;;10.60;9.80;;;18.80;99.90;;;;;;5112445;28;20394;-72
2021/08/03 09:26:06;;;;;;;9.20;8.60;;;18.90;99.90;;;;;;5106015;28;20455;-73
2021/08/03 09:28:32;;;;;;;10.27;9.40;;;19.10;99.90;;;;;;5096033;28;20414;-72
2021/08/03 09:30:58;;;;;;;9.53;8.83;;;19.30;99.90;;;;;;5096819;28;20410;-72
2021/08/03 09:33:27;;;;;;;9.57;8.77;;;19.60;99.90;;;;;;5107690;28;20266;-72
2021/08/03 09:35:55;;;;;;;9.77;8.97;;;19.80;99.90;;;;;;5107307;28;20179;-72
2021/08/03 09:38:22;;;;;;;9.17;8.47;;;19.90;99.90;;;;;;5115887;28;20832;-72
2021/08/03 09:40:50;;;;;;;11.60;10.80;;;20.10;99.90;;;;;;5115660;28;20413;-72
2021/08/03 09:43:24;;;;;;;9.03;8.23;;;20.30;99.90;;;;;;5097772;28;20490;-72
2021/08/03 09:45:50;;;;;;;9.33;8.63;;;20.40;99.90;;;;;;5095314;28;20469;-72
2021/08/03 09:48:20;;;;;;;11.27;10.47;;;20.60;99.90;;;;;;5095621;28;20406;-72
2021/08/03 09:51:01;;;;;;;12.13;11.20;;;20.80;99.60;;;;;;5095082;28;20230;-72
2021/08/03 09:53:52;;;;;;;9.60;8.80;;;21.00;99.90;;;;;;5095438;28;20811;-72
2021/08/03 09:56:22;;;;;;;11.07;10.27;;;21.20;99.70;;;;;;5095563;28;20501;-72
2021/08/03 09:59:02;;;;;;;8.80;8.27;;;21.40;99.80;;;;;;5094476;28;20800;-72
2021/08/03 10:01:33;;;;;;;9.23;8.33;;;21.40;95.70;;;;;;5095241;28;20406;-72
2021/08/03 10:04:10;;;;;;;8.60;8.00;;;21.20;93.60;;;;;;5094780;28;20460;-72
2021/08/03 10:06:36;;;;;;;13.47;12.17;;;21.00;95.10;;;;;;5095262;28;20387;-80
2021/08/03 10:09:04;;;;;;;9.17;8.47;;;20.90;95.10;;;;;;5095291;28;20399;-72
2021/08/03 10:11:30;;;;;;;11.07;10.20;;;20.70;95.00;;;;;;5095012;28;20470;-71
2021/08/03 10:13:57;;;;;;;9.07;8.37;;;20.70;94.10;;;;;;5094511;28;21120;-72
2021/08/03 10:16:24;;;;;;;9.80;8.97;;;20.70;95.40;;;;;;5095088;28;20402;-72
2021/08/03 10:18:52;;;;;;;8.80;8.20;;;20.80;96.40;;;;;;5094540;28;20769;-72
2021/08/03 10:21:43;;;;;;;10.13;9.37;;;20.80;96.90;;;;;;5095285;28;20407;-72
2021/08/03 10:24:14;;;;;;;9.17;8.47;;;20.80;97.50;;;;;;5094300;28;20399;-72
2021/08/03 10:26:40;;;;;;;9.20;8.40;;;20.90;97.20;;;;;;5094290;28;20816;-78
2021/08/03 10:29:20;;;;;;;9.37;8.73;;;20.90;97.00;;;;;;5094843;28;20402;-72
2021/08/03 10:31:46;;;;;;;9.93;9.03;;;20.90;96.10;;;;;;5094365;28;20407;-72
2021/08/03 10:34:44;;;;;;;9.90;9.17;;;21.00;97.60;;;;;;5094713;28;20549;-72
2021/08/03 10:37:13;;;;;;;10.57;9.77;;;21.10;98.20;;;;;;5094796;28;20420;-72
2021/08/03 10:39:51;;;;;;;9.07;8.37;;;21.20;97.80;;;;;;5093873;28;20493;-72
2021/08/03 10:42:17;;;;;;;9.20;8.50;;;21.20;97.80;;;;;;5094475;28;20414;-72
2021/08/03 10:44:48;;;;;;;9.70;9.10;;;21.30;96.80;;;;;;5093654;28;20844;-72
2021/08/03 10:47:34;;;;;;;10.70;9.93;;;21.30;96.30;;;;;;5094359;28;20414;-72
2021/08/03 10:50:28;;;;;;;7.43;6.83;;;21.20;95.10;;;;;;5093846;28;20419;-72
2021/08/03 10:52:55;;;;;;;7.90;7.07;;;20.90;92.50;;;;;;5093958;28;20448;-72
2021/08/03 10:55:59;;;;;;;7.27;6.80;;;20.80;92.80;;;;;;5094055;28;20975;-72
2021/08/03 10:58:27;;;;;;;8.27;7.67;;;20.70;92.00;;;;;;5094292;28;20402;-72
2021/08/03 11:00:58;;;;;;;9.20;8.40;;;20.70;92.90;;;;;;5093681;28;20399;-72
2021/08/03 11:03:35;;;;;;;7.30;6.80;;;20.60;93.20;;;;;;5094257;28;20397;-72
2021/08/03 11:06:06;;;;;;;7.20;6.60;;;20.50;93.20;;;;;;5093623;28;20414;-72
2021/08/03 11:08:39;;;;;;;6.10;5.60;;;20.40;91.30;;;;;;5094166;28;20917;-72
2021/08/03 11:11:12;;;;;;;8.10;7.67;;;20.30;90.60;;;;;;5092937;28;20426;-72
2021/08/03 11:13:38;;;;;;;9.00;8.50;;;20.20;90.40;;;;;;5094327;28;22730;-72
2021/08/03 11:16:09;;;;;;;6.70;6.20;;;20.10;91.30;;;;;;5093915;28;20502;-71
2021/08/03 11:18:44;;;;;;;5.90;5.60;;;20.00;92.80;;;;;;5094098;28;20247;-72
2021/08/03 11:21:15;;;;;;;7.10;6.60;;;19.80;94.10;;;;;;5093494;28;20413;-71
2021/08/03 11:23:59;;;;;;;4.90;4.60;;;19.70;94.70;;;;;;5093245;28;20424;-72
2021/08/03 11:26:30;;;;;;;6.70;6.10;;;19.70;95.80;;;;;;5093382;28;20442;-72
2021/08/03 11:29:01;;;;;;;6.40;5.90;;;19.70;96.20;;;;;;5093163;28;20402;-72
2021/08/03 11:31:50;;;;;;;5.57;5.20;;;19.60;95.80;;;;;;5093845;28;20401;-72
2021/08/03 11:34:21;;;;;;;6.00;5.50;;;19.40;95.50;;;;;;5082677;28;20568;-72
2021/08/03 11:37:02;;;;;;;8.37;7.77;;;19.30;95.90;;;;;;5092809;28;20444;-71
2021/08/03 11:39:34;;;;;;;7.60;7.00;;;19.30;96.20;;;;;;5093836;28;20434;-72
2021/08/03 11:42:00;;;;;;;7.43;6.97;;;19.30;96.80;;;;;;5092543;28;20468;-72
2021/08/03 11:44:26;;;;;;;7.20;6.63;;;19.40;96.50;;;;;;5092908;28;20454;-72
2021/08/03 11:47:12;;;;;;;6.93;6.43;;;19.40;96.40;;;;;;5091695;28;20402;-71
2021/08/03 11:49:53;;;;;;;6.90;6.40;;;19.40;96.90;;;;;;5093424;28;20226;-70
2021/08/03 11:52:23;;;;;;;7.50;6.80;;;19.30;97.40;;;;;;5093130;28;20825;-71
2021/08/03 11:54:52;;;;;;;7.27;6.87;;;19.20;97.10;;;;;;5091947;28;20446;-72
2021/08/03 11:57:36;;;;;;;6.77;6.27;;;19.10;96.70;;;;;;5093266;28;20407;-72
2021/08/03 12:00:01;;;;;;;6.13;5.80;;;19.00;97.20;;;;;;5092709;28;20423;-72
2021/08/03 12:02:27;;;;;;;5.40;5.00;;;19.00;97.50;;;;;;5093352;28;20441;-72
2021/08/03 12:05:03;;;;;;;6.47;5.97;;;18.90;97.10;;;;;;5092572;28;20168;-72
2021/08/03 12:07:29;;;;;;;7.30;6.70;;;19.00;97.30;;;;;;5093130;28;20172;-72
2021/08/03 12:09:55;;;;;;;5.53;5.13;;;19.10;98.00;;;;;;5092220;28;20406;-72
2021/08/03 12:12:21;;;;;;;6.50;5.90;;;19.10;97.00;;;;;;5092725;28;20472;-72
2021/08/03 12:14:47;;;;;;;7.90;7.30;;;19.10;96.50;;;;;;5092525;28;20200;-72
2021/08/03 12:17:26;;;;;;;7.27;6.70;;;19.10;96.40;;;;;;5092927;28;20181;-72
2021/08/03 12:19:52;;;;;;;7.70;7.20;;;19.10;96.40;;;;;;5092385;28;20191;-72
2021/08/03 12:22:28;;;;;;;6.60;6.10;;;19.10;96.20;;;;;;5109685;28;20905;-71
2021/08/03 12:25:02;;;;;;;7.40;6.90;;;19.00;95.10;;;;;;5112619;28;20393;-72
2021/08/03 12:27:38;;;;;;;7.00;6.23;;;19.00;94.30;;;;;;5113382;28;20818;-72
2021/08/03 12:30:06;;;;;;;7.07;6.67;;;18.90;94.40;;;;;;5112868;28;20413;-72
2021/08/03 12:32:40;;;;;;;6.40;6.00;;;18.90;94.50;;;;;;5113353;28;20410;-72
2021/08/03 12:35:14;;;;;;;8.13;7.63;;;18.90;94.10;;;;;;5112062;28;20457;-71
2021/08/03 12:37:40;;;;;;;7.77;7.37;;;18.90;94.40;;;;;;5112968;28;20463;-72
2021/08/03 12:40:33;;;;;;;7.00;6.60;;;18.90;94.30;;;;;;5112439;28;20417;-73
2021/08/03 12:43:00;;;;;;;7.60;7.20;;;18.90;94.90;;;;;;5096251;28;20501;-72
2021/08/03 12:45:27;;;;;;;6.30;5.90;;;19.00;95.60;;;;;;5092122;28;20904;-72
2021/08/03 12:47:58;;;;;;;7.97;7.37;;;19.10;96.10;;;;;;5092019;28;20420;-72
2021/08/03 12:50:25;;;;;;;6.83;6.23;;;19.20;95.80;;;;;;5092421;28;20399;-72